METAR Data
IDs: Format: Raw Decoded Include TAF

Data at: 2132 UTC 20 Nov 2018

KPRX 202056Z AUTO 01010KT 10SM CLR 13/M02 A3032 RMK AO2 SLP286 T01281017 56022
KPRX 201956Z AUTO 01008G15KT 10SM CLR 13/M01 A3033 RMK AO2 SLP290 T01281011
KPRX 201856Z AUTO 02009KT 10SM CLR 12/M01 A3036 RMK AO2 SLP299 T01221011
KPRX 201756Z AUTO 01013KT 10SM CLR 11/M01 A3039 RMK AO2 SLP309 T01111011 10117 20000 58003
KPRX 201656Z AUTO 04008KT 10SM CLR 11/M01 A3041 RMK AO2 SLP316 T01061011
KPRX 201556Z AUTO 03007KT 10SM CLR 08/01 A3041 RMK AO2 SLP318 T00830011
KPRX 201456Z AUTO 36006KT 10SM CLR 06/02 A3039 RMK AO2 SLP310 T00560017 51024
KPRX 201356Z AUTO 34005KT 10SM CLR 02/01 A3037 RMK AO2 SLP304 T00220006 FZRANO
KPRX 201346Z AUTO 34006KT 10SM FEW001 02/00 A3037 RMK AO2 FZRANO
KPRX 201256Z AUTO 33004KT 10SM CLR 00/M01 A3035 RMK AO2 SLP297 T00001006 FZRANO
KPRX 201156Z AUTO 33005KT 10SM CLR 01/M01 A3032 RMK AO2 SLP287 T00061006 10028 20006 53010 FZRANO
KPRX 201056Z AUTO 34005KT 10SM CLR 01/00 A3031 RMK AO2 SLP281 T00110000 FZRANO
KPRX 200956Z AUTO 34009KT 10SM CLR 02/01 A3030 RMK AO2 SLP276 T00170006 FZRANO
KPRX 200856Z AUTO 31004KT 10SM CLR 02/00 A3029 RMK AO2 SLP276 T00220000 53006 FZRANO
KPRX 200756Z AUTO 32004KT 10SM CLR 02/01 A3028 RMK AO2 SLP272 T00220006 FZRANO
KPRX 200656Z AUTO 33004KT 10SM CLR 02/01 A3027 RMK AO2 SLP268 T00170006 FZRANO
KPRX 200556Z AUTO 33004KT 10SM CLR 03/01 A3027 RMK AO2 SLP269 T00280006 10078 20022 401110000 51008
KPRX 200456Z AUTO 34003KT 10SM CLR 02/01 A3027 RMK AO2 SLP269 T00220006 FZRANO
KPRX 200356Z AUTO 36004KT 10SM CLR 04/01 A3026 RMK AO2 SLP266 T00440006
KPRX 200256Z AUTO 34004KT 10SM CLR 05/01 A3025 RMK AO2 SLP261 T00500006 51017
KPRX 200156Z AUTO 32004KT 10SM CLR 06/01 A3023 RMK AO2 SLP256 T00560011
KPRX 200056Z AUTO 30004KT 10SM CLR 06/01 A3022 RMK AO2 SLP251 T00610011
KPRX 192356Z AUTO 00000KT 10SM CLR 07/01 A3020 RMK AO2 SLP244 T00720011 10111 20072 53011
KPRX 192256Z AUTO 34006KT 10SM CLR 09/01 A3018 RMK AO2 SLP237 T00890011
KPRX 192156Z AUTO 34008KT 10SM CLR 11/01 A3016 RMK AO2 SLP230 T01060011
KPRX 192056Z AUTO 33006KT 10SM CLR 11/01 A3017 RMK AO2 SLP232 T01110011 56023
KPRX 191956Z AUTO 33005KT 10SM CLR 11/01 A3017 RMK AO2 SLP235 T01060011
KPRX 191856Z AUTO 28004KT 10SM CLR 10/01 A3020 RMK AO2 SLP243 T01000011
KPRX 191756Z AUTO VRB04KT 10SM CLR 08/01 A3023 RMK AO2 SLP256 T00780006 10083 20000 58008
KPRX 191656Z AUTO 33006KT 10SM CLR 07/01 A3025 RMK AO2 SLP263 T00670006
KPRX 191556Z AUTO 28003KT 10SM CLR 05/00 A3027 RMK AO2 SLP268 T00500000
KPRX 191456Z AUTO 34007KT 8SM CLR 04/00 A3026 RMK AO2 SLP265 T00390000 51015
KPRX 191356Z AUTO 29003KT 10SM CLR 02/01 A3026 RMK AO2 SLP263 T00170006 FZRANO
KPRX 191256Z AUTO 00000KT 10SM BKN055 00/M01 A3023 RMK AO2 SLP256 T00001006 FZRANO
KPRX 191156Z AUTO 32006KT 10SM CLR 01/M01 A3021 RMK AO2 SLP248 T00061006 10017 20006 50001 FZRANO
KPRX 191143Z AUTO 33009KT 10SM FEW011 01/M01 A3021 RMK AO2 FZRANO
KPRX 191056Z AUTO 31007KT 10SM OVC013 02/M01 A3022 RMK AO2 SLP250 T00171006 FZRANO
KPRX 190956Z AUTO 32012KT 10SM BKN013 OVC065 02/00 A3021 RMK AO2 SLP250 T00170000 FZRANO
KPRX 190951Z AUTO 32011KT 10SM BKN013 OVC065 01/00 A3021 RMK AO2 FZRANO